MMMY/MTY METAR and TAF weather

Enter ICAO airport designator
Station Type Date Time Source
MMMY METAR 2019/05/26 23:44 UTC NOAA

MMMY 262344Z 11015KT 6SM SCT040 BKN120 BKN250 34/19 A2984 RMK SLP/// 5//// 9// 8/578


Station Type Date Time Source
MMMY Decoded METAR 2019/05/26 23:44 UTC NOAA

Monterrey / Gen Maria, Mexico (MMMY) 25-47N 100-06W
May 26, 2019 - 07:44 PM EDT / 2019.05.26 2344 UTC
Wind: from the ESE (110 degrees) at 17 MPH (15 KT):0
Visibility: 6 mile(s):0
Sky conditions: mostly cloudy
Temperature: 93 F (34 C)
Heat index: 95.9 F (35.5 C):1
Dew Point: 66 F (19 C)
Relative Humidity: 41%
Pressure (altimeter): 29.84 in. Hg (1010 hPa)
ob: MMMY 262344Z 11015KT 6SM SCT040 BKN120 BKN250 34/19 A2984 RMK SLP/// 5//// 9// 8/578
cycle: 23

Station Type Date Time Source
MMMY TAF 2019/05/26 18:31 UTC NOAA

TAF MMMY 261725Z 2618/2724 12015KT P6SM BKN025 TX36/2622Z TN22/2711Z
BECMG 2620/2621 SCT030
FM270300 11008KT 6SM HZ BKN020
TEMPO 2710/2714 3SM BR HZ BKN010 OVC020
FM271600 11010KT 6SM HZ BKN020
FM271900 12015KT P6SM SKC

Example: see airport list